createdAt,value
2018-10-09T00:00:06.437Z,41.80
2018-10-09T00:02:35.148Z,42.90
2018-10-09T00:05:03.848Z,42.30
2018-10-09T00:07:32.930Z,40.80
2018-10-09T00:10:01.982Z,42.20
2018-10-09T00:12:30.986Z,48.50
2018-10-09T00:14:59.697Z,47.70
2018-10-09T00:17:28.414Z,49.60
2018-10-09T00:19:57.511Z,50.70
2018-10-09T00:22:26.517Z,51.40
2018-10-09T00:24:55.560Z,51.70
2018-10-09T00:27:24.229Z,48.10
2018-10-09T00:29:53.258Z,51.40
2018-10-09T00:32:22.273Z,53.70
2018-10-09T00:34:51.421Z,50.30
2018-10-09T00:37:19.890Z,51.80
2018-10-09T00:39:48.974Z,50.20
2018-10-09T00:42:17.666Z,44.70
2018-10-09T00:44:46.401Z,42.70
2018-10-09T00:47:15.495Z,41.10
2018-10-09T00:49:44.209Z,43.90
2018-10-09T00:52:12.899Z,48.10
2018-10-09T00:54:41.540Z,48.70
2018-10-09T00:57:09.942Z,47.60
2018-10-09T00:59:38.917Z,51.60
2018-10-09T01:02:07.352Z,51.20
2018-10-09T01:04:36.386Z,51.40
2018-10-09T01:07:05.060Z,49.50
2018-10-09T01:09:34.487Z,47.50
2018-10-09T01:12:03.248Z,45.70
2018-10-09T01:14:32.061Z,45.60
2018-10-09T01:17:01.111Z,40.40
2018-10-09T01:19:29.913Z,44.10
2018-10-09T01:21:58.376Z,41.00
2018-10-09T01:24:27.402Z,42.70
2018-10-09T01:26:55.735Z,49.40
2018-10-09T01:29:24.448Z,50.50
2018-10-09T01:31:53.679Z,49.70
2018-10-09T01:34:22.550Z,52.40
2018-10-09T01:36:51.586Z,55.10
2018-10-09T01:39:20.320Z,53.50
2018-10-09T01:41:48.988Z,52.30
2018-10-09T01:44:17.989Z,52.70
2018-10-09T01:46:46.973Z,52.70
2018-10-09T01:49:15.331Z,60.60
2018-10-09T01:51:44.343Z,60.10
2018-10-09T01:54:13.679Z,59.50
2018-10-09T01:56:42.362Z,60.70
2018-10-09T01:59:11.141Z,65.70
2018-10-09T02:01:40.172Z,63.10
2018-10-09T02:04:08.852Z,63.90
2018-10-09T02:06:38.281Z,63.70
2018-10-09T02:09:08.034Z,63.30
2018-10-09T02:11:36.978Z,62.20
2018-10-09T02:14:05.816Z,61.20
2018-10-09T02:16:34.497Z,60.60
2018-10-09T02:19:03.194Z,59.70
2018-10-09T02:21:31.962Z,65.90
2018-10-09T02:24:00.691Z,66.40
2018-10-09T02:26:29.772Z,65.80
2018-10-09T02:28:58.851Z,63.90
2018-10-09T02:31:27.946Z,62.00
2018-10-09T02:33:57.010Z,62.30
2018-10-09T02:36:25.693Z,60.40
2018-10-09T02:38:54.690Z,58.80
2018-10-09T02:41:24.157Z,59.00
2018-10-09T02:43:53.166Z,55.40
2018-10-09T02:46:21.862Z,58.90
2018-10-09T02:48:50.639Z,60.10
2018-10-09T02:51:19.729Z,63.70
2018-10-09T02:53:48.799Z,64.20
2018-10-09T02:56:17.579Z,63.10
2018-10-09T02:58:46.636Z,64.50
2018-10-09T03:01:15.740Z,62.40
2018-10-09T03:03:44.485Z,66.50
2018-10-09T03:06:12.850Z,71.70
2018-10-09T03:08:41.990Z,74.70
2018-10-09T03:11:11.077Z,73.40
2018-10-09T03:13:39.921Z,72.60
2018-10-09T03:16:08.693Z,71.30
2018-10-09T03:18:37.751Z,66.60
2018-10-09T03:21:06.530Z,68.90
2018-10-09T03:23:35.733Z,72.00
2018-10-09T03:26:04.460Z,68.80
2018-10-09T03:28:33.186Z,67.40
2018-10-09T03:31:01.885Z,65.30
2018-10-09T03:33:30.642Z,64.10
2018-10-09T03:35:59.357Z,69.40
2018-10-09T03:38:28.401Z,70.40
2018-10-09T03:40:57.454Z,69.10
2018-10-09T03:43:26.445Z,70.00
2018-10-09T03:45:55.499Z,70.00
2018-10-09T03:48:24.830Z,66.10
2018-10-09T03:50:53.881Z,68.30
2018-10-09T03:53:23.002Z,69.60
2018-10-09T03:55:51.752Z,66.50
2018-10-09T03:58:20.785Z,66.90
2018-10-09T04:00:49.795Z,71.00
2018-10-09T04:03:18.533Z,72.20
2018-10-09T04:05:47.237Z,71.40
2018-10-09T04:08:16.254Z,70.30
2018-10-09T04:10:45.256Z,68.00
2018-10-09T04:13:14.732Z,64.20
2018-10-09T04:15:43.812Z,65.30
2018-10-09T04:18:12.889Z,60.30
2018-10-09T04:20:41.648Z,65.20
2018-10-09T04:23:10.432Z,63.70
2018-10-09T04:25:39.177Z,60.50
2018-10-09T04:28:07.993Z,63.60
2018-10-09T04:30:37.053Z,63.30
2018-10-09T04:33:05.452Z,60.10
2018-10-09T04:35:33.935Z,61.10
2018-10-09T04:38:02.845Z,65.60
2018-10-09T04:40:31.546Z,65.30
2018-10-09T04:43:00.737Z,69.40
2018-10-09T04:45:30.136Z,70.10
2018-10-09T04:48:00.562Z,62.90
2018-10-09T04:50:30.049Z,58.00
2018-10-09T04:52:58.793Z,60.30
2018-10-09T04:55:27.729Z,58.20
2018-10-09T04:57:57.665Z,55.90
2018-10-09T05:00:26.706Z,53.40
2018-10-09T05:02:55.767Z,58.50
2018-10-09T05:05:24.886Z,52.10
2018-10-09T05:07:53.562Z,57.90
2018-10-09T05:10:22.069Z,59.00
2018-10-09T05:12:50.790Z,63.70
2018-10-09T05:15:19.542Z,67.80
2018-10-09T05:17:48.692Z,70.60
2018-10-09T05:20:17.811Z,73.50
2018-10-09T05:22:46.532Z,73.60
2018-10-09T05:25:15.667Z,78.10
2018-10-09T05:27:44.763Z,89.80
2018-10-09T05:30:13.141Z,84.30
2018-10-09T05:32:41.901Z,91.00
2018-10-09T05:35:10.505Z,88.50
2018-10-09T05:37:39.305Z,83.80
2018-10-09T05:40:08.553Z,85.20
2018-10-09T05:42:37.273Z,85.00
2018-10-09T05:45:06.001Z,82.50
2018-10-09T05:47:35.053Z,87.40
2018-10-09T05:50:04.102Z,92.70
2018-10-09T05:52:33.182Z,95.30
2018-10-09T05:55:02.089Z,96.80
2018-10-09T05:57:31.146Z,98.30
2018-10-09T05:59:59.881Z,99.00
2018-10-09T06:02:28.525Z,98.60
2018-10-09T06:04:57.651Z,99.60
2018-10-09T06:07:26.432Z,99.90
2018-10-09T06:09:55.513Z,99.90
2018-10-09T06:12:24.223Z,99.90
2018-10-09T06:14:52.956Z,99.90
2018-10-09T06:17:22.148Z,99.90
2018-10-09T06:19:51.258Z,99.90
2018-10-09T06:22:20.369Z,99.90
2018-10-09T06:24:49.479Z,99.90
2018-10-09T06:27:18.533Z,99.90
2018-10-09T06:29:47.245Z,99.90
2018-10-09T06:32:16.386Z,99.00
2018-10-09T06:34:45.454Z,98.00
2018-10-09T06:37:14.579Z,96.90
2018-10-09T06:39:43.813Z,97.00
2018-10-09T06:42:12.722Z,96.70
2018-10-09T06:44:41.806Z,95.90
2018-10-09T06:47:10.353Z,93.80
2018-10-09T06:49:39.502Z,89.70
2018-10-09T06:52:07.872Z,84.70
2018-10-09T06:54:37.212Z,78.00
2018-10-09T06:57:06.121Z,77.90
2018-10-09T06:59:35.229Z,71.40
2018-10-09T07:02:03.634Z,63.50
2018-10-09T07:04:32.389Z,47.70
2018-10-09T07:07:01.213Z,45.20
2018-10-09T07:09:30.270Z,45.10
2018-10-09T07:11:59.048Z,35.30
2018-10-09T07:14:28.407Z,40.00
2018-10-09T07:16:57.193Z,35.70
2018-10-09T07:19:26.480Z,37.70
2018-10-09T07:21:55.255Z,41.40
2018-10-09T07:24:24.398Z,40.10
2018-10-09T07:26:53.499Z,44.60
2018-10-09T07:29:21.922Z,48.20
2018-10-09T07:31:50.632Z,36.70
2018-10-09T07:34:19.714Z,37.50
2018-10-09T07:36:48.453Z,3.90
2018-10-09T07:39:17.259Z,1.00
2018-10-09T07:41:46.411Z,1.00
2018-10-09T07:44:15.196Z,1.00
2018-10-09T07:46:43.884Z,1.00
2018-10-09T07:49:12.290Z,1.00
2018-10-09T07:51:41.089Z,1.00
2018-10-09T07:54:09.503Z,1.00
2018-10-09T07:56:38.593Z,1.00
2018-10-09T07:59:07.083Z,1.00
2018-10-09T08:01:36.189Z,1.00
2018-10-09T08:04:05.236Z,1.00
2018-10-09T08:06:33.963Z,1.00
2018-10-09T08:09:03.484Z,1.00
2018-10-09T08:11:32.399Z,1.00
2018-10-09T08:14:01.579Z,1.00
2018-10-09T08:16:30.759Z,1.00
2018-10-09T08:18:59.922Z,1.00
2018-10-09T08:21:29.080Z,1.00
2018-10-09T08:23:59.904Z,1.00
2018-10-09T08:26:29.439Z,1.00
2018-10-09T08:28:58.556Z,1.00
2018-10-09T08:31:27.622Z,1.00
2018-10-09T08:33:56.684Z,1.00
2018-10-09T08:36:26.114Z,1.00
2018-10-09T08:38:55.329Z,1.00
2018-10-09T08:41:24.082Z,1.00
2018-10-09T08:43:53.134Z,1.00
2018-10-09T08:46:22.490Z,99.90
2018-10-09T08:48:51.421Z,1.00
2018-10-09T08:51:20.255Z,99.90
2018-10-09T08:53:48.746Z,1.00
2018-10-09T08:56:17.539Z,1.00
2018-10-09T08:58:46.378Z,99.90
2018-10-09T09:01:15.190Z,1.00
2018-10-09T09:03:44.002Z,1.00
2018-10-09T09:06:12.813Z,1.00
2018-10-09T09:08:41.254Z,1.00
2018-10-09T09:11:10.024Z,99.90
2018-10-09T09:13:38.881Z,99.90
2018-10-09T09:16:08.380Z,99.90
2018-10-09T09:18:36.825Z,1.00
2018-10-09T09:21:05.079Z,99.90
2018-10-09T09:23:33.621Z,99.90
2018-10-09T09:26:02.180Z,99.90
2018-10-09T09:28:30.790Z,99.90
2018-10-09T09:30:59.534Z,95.00
2018-10-09T09:33:28.302Z,1.00
2018-10-09T09:35:57.129Z,99.90
2018-10-09T09:38:25.598Z,1.00
2018-10-09T09:40:54.227Z,1.00
2018-10-09T09:43:23.876Z,99.90
2018-10-09T09:45:52.231Z,1.00
2018-10-09T09:48:20.831Z,99.90
2018-10-09T09:50:49.863Z,1.00
2018-10-09T09:53:18.686Z,99.90
2018-10-09T09:55:47.556Z,99.90
2018-10-09T09:58:16.462Z,1.00
2018-10-09T10:00:50.503Z,99.90
2018-10-09T10:03:18.992Z,82.40
2018-10-09T10:05:47.831Z,1.00
2018-10-09T10:08:16.745Z,1.00
2018-10-09T10:10:45.571Z,1.00
2018-10-09T10:13:14.445Z,1.00
2018-10-09T10:15:42.959Z,1.00
2018-10-09T10:18:11.831Z,5.70
2018-10-09T10:20:40.257Z,1.00
2018-10-09T10:23:08.755Z,1.00
2018-10-09T10:25:37.621Z,99.90
2018-10-09T10:28:05.934Z,99.90
2018-10-09T10:30:34.836Z,99.90
2018-10-09T10:33:03.648Z,99.90
2018-10-09T10:35:32.415Z,99.90
2018-10-09T10:38:01.395Z,99.90
2018-10-09T10:40:29.877Z,99.90
2018-10-09T10:42:58.763Z,99.90
2018-10-09T10:45:27.590Z,99.90
2018-10-09T10:47:56.071Z,99.90
2018-10-09T10:50:24.239Z,1.00
2018-10-09T10:52:52.898Z,1.00
2018-10-09T10:55:21.831Z,1.00
2018-10-09T10:57:50.288Z,99.90
2018-10-09T11:00:19.056Z,99.90
2018-10-09T11:02:47.883Z,93.40
2018-10-09T11:05:16.844Z,2.60
2018-10-09T11:07:45.287Z,1.00
2018-10-09T11:10:13.896Z,1.00
2018-10-09T11:12:42.596Z,1.00
2018-10-09T11:15:11.382Z,1.00
2018-10-09T11:17:40.322Z,1.00
2018-10-09T11:20:09.041Z,1.00
2018-10-09T11:22:38.885Z,1.00
2018-10-09T11:25:06.974Z,1.00
2018-10-09T11:27:35.724Z,1.00
2018-10-09T11:30:04.559Z,1.00
2018-10-09T11:32:33.931Z,1.00
2018-10-09T11:35:02.791Z,1.00
2018-10-09T11:37:31.350Z,1.00
2018-10-09T11:40:00.081Z,1.00
2018-10-09T11:42:28.831Z,1.00
2018-10-09T11:44:58.161Z,1.00
2018-10-09T11:47:27.161Z,1.00
2018-10-09T11:49:55.905Z,1.00
2018-10-09T11:52:24.979Z,1.00
2018-10-09T11:54:53.650Z,1.00
2018-10-09T11:57:22.475Z,1.00
2018-10-09T11:59:51.428Z,1.00
2018-10-09T12:02:20.750Z,1.00
2018-10-09T12:04:50.413Z,1.00
2018-10-09T12:07:18.860Z,1.00
2018-10-09T12:09:46.963Z,1.00
2018-10-09T12:12:16.195Z,1.00
2018-10-09T12:14:44.641Z,1.00
2018-10-09T12:17:13.538Z,1.00
2018-10-09T12:19:42.027Z,1.00
2018-10-09T12:22:10.926Z,1.00
2018-10-09T12:24:40.082Z,1.00
2018-10-09T12:27:08.212Z,1.00
2018-10-09T12:29:36.923Z,1.00
2018-10-09T12:32:05.565Z,1.00
2018-10-09T12:34:34.175Z,1.00
2018-10-09T12:37:02.959Z,1.00
2018-10-09T12:39:31.366Z,1.00
2018-10-09T12:42:00.596Z,1.00
2018-10-09T12:44:29.120Z,1.00
2018-10-09T12:46:58.007Z,1.00
2018-10-09T12:49:26.834Z,1.00
2018-10-09T12:51:54.900Z,1.00
2018-10-09T12:54:23.719Z,1.00
2018-10-09T12:56:52.172Z,1.00
2018-10-09T12:59:21.083Z,1.00
2018-10-09T13:01:49.851Z,1.00
2018-10-09T13:04:18.818Z,1.00
2018-10-09T13:06:47.557Z,1.00
2018-10-09T13:09:16.174Z,1.00
2018-10-09T13:11:45.125Z,1.00
2018-10-09T13:14:13.935Z,1.00
2018-10-09T13:16:42.358Z,1.00
2018-10-09T13:19:11.094Z,1.00
2018-10-09T13:21:40.806Z,1.00
2018-10-09T13:24:10.047Z,1.00
2018-10-09T13:26:39.316Z,1.00
2018-10-09T13:29:07.731Z,1.00
2018-10-09T13:31:36.890Z,1.00
2018-10-09T13:34:06.131Z,1.00
2018-10-09T13:36:35.079Z,1.00
2018-10-09T13:39:05.211Z,1.00
2018-10-09T13:41:33.793Z,1.00
2018-10-09T13:44:02.365Z,1.00
2018-10-09T13:46:32.011Z,1.00
2018-10-09T13:49:01.280Z,1.00
2018-10-09T13:51:31.146Z,1.00
2018-10-09T13:54:00.044Z,1.00
2018-10-09T13:56:28.955Z,1.00
2018-10-09T13:58:57.759Z,1.00
2018-10-09T14:01:26.337Z,1.00
2018-10-09T14:03:55.153Z,1.00
2018-10-09T14:06:24.022Z,1.00
2018-10-09T14:08:52.775Z,1.00
2018-10-09T14:11:21.182Z,1.00
2018-10-09T14:13:49.991Z,1.00
2018-10-09T14:16:18.453Z,1.00
2018-10-09T14:18:47.120Z,1.00
2018-10-09T14:21:15.914Z,1.00
2018-10-09T14:23:44.735Z,1.00
2018-10-09T14:26:13.198Z,1.00
2018-10-09T14:28:41.959Z,1.00
2018-10-09T14:31:10.684Z,1.00
2018-10-09T14:33:39.215Z,1.00
2018-10-09T14:36:07.673Z,1.00
2018-10-09T14:38:36.465Z,1.00
2018-10-09T14:41:04.809Z,1.00
2018-10-09T14:43:33.663Z,1.00
2018-10-09T14:46:02.519Z,1.00
2018-10-09T14:48:31.222Z,1.00
2018-10-09T14:50:59.618Z,1.00
2018-10-09T14:53:28.442Z,1.00
2018-10-09T14:55:56.918Z,1.00
2018-10-09T14:58:25.683Z,1.00
2018-10-09T15:00:54.102Z,1.00
2018-10-09T15:03:23.392Z,1.00
2018-10-09T15:05:52.307Z,1.00
2018-10-09T15:08:20.943Z,1.00
2018-10-09T15:10:49.660Z,1.00
2018-10-09T15:13:18.481Z,1.00
2018-10-09T15:15:47.299Z,1.00
2018-10-09T15:18:16.259Z,1.00
2018-10-09T15:20:44.668Z,1.00
2018-10-09T15:23:13.335Z,1.00
2018-10-09T15:25:42.328Z,1.00
2018-10-09T15:28:11.187Z,1.00
2018-10-09T15:30:40.332Z,1.00
2018-10-09T15:33:09.411Z,1.00
2018-10-09T15:35:38.526Z,1.00
2018-10-09T15:38:06.727Z,1.00
2018-10-09T15:40:35.999Z,1.00
2018-10-09T15:43:04.420Z,1.00
2018-10-09T15:45:35.449Z,1.00
2018-10-09T15:48:03.764Z,1.00
2018-10-09T15:50:32.530Z,1.00
2018-10-09T15:53:00.957Z,1.00
2018-10-09T15:55:29.730Z,1.00
2018-10-09T15:57:58.491Z,1.00
2018-10-09T16:00:27.395Z,1.00
2018-10-09T16:02:56.511Z,1.00
2018-10-09T16:05:25.302Z,1.00
2018-10-09T16:07:53.731Z,1.00
2018-10-09T16:10:22.235Z,1.00
2018-10-09T16:12:51.331Z,1.00
2018-10-09T16:15:19.423Z,1.00
2018-10-09T16:17:48.347Z,1.00
2018-10-09T16:20:17.090Z,1.00
2018-10-09T16:22:45.947Z,99.90
2018-10-09T16:25:14.748Z,1.00
2018-10-09T16:27:43.230Z,1.00
2018-10-09T16:30:11.696Z,1.00
2018-10-09T16:32:40.473Z,1.00
2018-10-09T16:35:09.310Z,1.00
2018-10-09T16:37:38.067Z,99.90
2018-10-09T16:40:06.183Z,99.90
2018-10-09T16:42:35.005Z,1.00
2018-10-09T16:45:03.194Z,1.00
2018-10-09T16:47:32.103Z,1.00
2018-10-09T16:50:00.653Z,99.90
2018-10-09T16:52:29.090Z,99.90
2018-10-09T16:54:57.555Z,99.90
2018-10-09T16:57:25.662Z,99.90
2018-10-09T16:59:54.124Z,1.00
2018-10-09T17:02:23.323Z,1.00
2018-10-09T17:04:51.400Z,99.10
2018-10-09T17:07:20.176Z,99.90
2018-10-09T17:09:48.998Z,99.90
2018-10-09T17:12:17.492Z,1.00
2018-10-09T17:14:46.956Z,1.00
2018-10-09T17:17:15.733Z,1.00
2018-10-09T17:19:44.169Z,1.00
2018-10-09T17:22:12.850Z,1.00
2018-10-09T17:24:43.568Z,1.00
2018-10-09T17:27:12.364Z,1.00
2018-10-09T17:29:40.803Z,1.00
2018-10-09T17:32:09.606Z,1.00
2018-10-09T17:34:38.428Z,1.00
2018-10-09T17:37:06.987Z,1.00
2018-10-09T17:39:35.578Z,1.00
2018-10-09T17:42:04.087Z,1.00
2018-10-09T17:44:33.131Z,1.00
2018-10-09T17:47:05.473Z,1.00
2018-10-09T17:49:34.186Z,1.00
2018-10-09T17:52:03.225Z,1.00
2018-10-09T17:54:32.058Z,1.00
2018-10-09T17:57:01.240Z,1.00
2018-10-09T17:59:30.150Z,1.00
2018-10-09T18:01:59.386Z,1.00
2018-10-09T18:04:28.314Z,1.00
2018-10-09T18:06:57.091Z,1.00
2018-10-09T18:09:25.818Z,1.00
2018-10-09T18:11:54.477Z,1.00
2018-10-09T18:14:23.273Z,1.00
2018-10-09T18:16:52.383Z,1.00
2018-10-09T18:19:21.444Z,1.00
2018-10-09T18:21:50.196Z,1.00
2018-10-09T18:24:19.224Z,1.00
2018-10-09T18:26:48.267Z,1.00
2018-10-09T18:29:17.199Z,1.00
2018-10-09T18:31:45.967Z,1.00
2018-10-09T18:34:15.047Z,1.00
2018-10-09T18:36:43.735Z,1.00
2018-10-09T18:39:14.289Z,1.00
2018-10-09T18:41:43.530Z,1.00
2018-10-09T18:44:12.487Z,7.70
2018-10-09T18:46:41.551Z,13.70
2018-10-09T18:49:10.341Z,14.70
2018-10-09T18:51:39.144Z,18.70
2018-10-09T18:54:08.241Z,22.70
2018-10-09T18:56:37.018Z,26.80
2018-10-09T18:59:05.776Z,29.90
2018-10-09T19:01:35.076Z,28.80
2018-10-09T19:04:04.057Z,29.70
2018-10-09T19:06:33.109Z,33.00
2018-10-09T19:09:02.111Z,39.60
2018-10-09T19:11:30.938Z,41.10
2018-10-09T19:13:59.877Z,42.50
2018-10-09T19:16:28.267Z,41.80
2018-10-09T19:18:57.328Z,40.90
2018-10-09T19:21:26.100Z,40.00
2018-10-09T19:23:55.243Z,40.70
2018-10-09T19:26:24.095Z,41.80
2018-10-09T19:28:53.183Z,45.60
2018-10-09T19:31:21.599Z,47.10
2018-10-09T19:33:50.703Z,47.20
2018-10-09T19:36:19.811Z,47.10
2018-10-09T19:38:48.873Z,46.50
2018-10-09T19:41:17.577Z,45.30
2018-10-09T19:43:46.646Z,50.00
2018-10-09T19:46:15.880Z,55.10
2018-10-09T19:48:44.605Z,56.00
2018-10-09T19:51:13.815Z,55.80
2018-10-09T19:53:43.042Z,58.20
2018-10-09T19:56:12.095Z,58.20
2018-10-09T19:58:41.163Z,60.30
2018-10-09T20:01:10.088Z,65.00
2018-10-09T20:03:39.231Z,64.70
2018-10-09T20:06:08.005Z,65.70
2018-10-09T20:08:36.998Z,65.30
2018-10-09T20:11:05.746Z,66.70
2018-10-09T20:13:34.947Z,70.60
2018-10-09T20:16:03.818Z,70.60
2018-10-09T20:18:33.036Z,70.50
2018-10-09T20:21:02.082Z,68.40
2018-10-09T20:23:30.807Z,68.70
2018-10-09T20:25:59.513Z,66.40
2018-10-09T20:28:28.365Z,65.20
2018-10-09T20:30:57.440Z,64.50
2018-10-09T20:33:26.537Z,65.50
2018-10-09T20:35:55.395Z,64.30
2018-10-09T20:38:24.161Z,63.40
2018-10-09T20:40:52.855Z,63.70
2018-10-09T20:43:21.915Z,61.80
2018-10-09T20:45:51.341Z,62.40
2018-10-09T20:48:20.403Z,62.80
2018-10-09T20:50:49.491Z,65.00
2018-10-09T20:53:18.576Z,65.10
2018-10-09T20:55:47.488Z,66.50
2018-10-09T20:58:16.731Z,69.50
2018-10-09T21:00:45.413Z,73.50
2018-10-09T21:03:14.110Z,74.10
2018-10-09T21:05:43.276Z,76.00
2018-10-09T21:08:12.074Z,78.20
2018-10-09T21:10:41.174Z,81.30
2018-10-09T21:13:10.736Z,83.10
2018-10-09T21:15:39.790Z,83.40
2018-10-09T21:18:08.821Z,85.70
2018-10-09T21:20:37.955Z,84.40
2018-10-09T21:23:06.717Z,84.70
2018-10-09T21:25:35.949Z,86.20
2018-10-09T21:28:05.051Z,87.80
2018-10-09T21:30:34.306Z,89.10
2018-10-09T21:33:03.037Z,90.00
2018-10-09T21:35:31.405Z,87.50
2018-10-09T21:38:00.511Z,87.50
2018-10-09T21:40:29.203Z,86.10
2018-10-09T21:42:58.032Z,86.30
2018-10-09T21:45:27.137Z,88.20
2018-10-09T21:47:58.063Z,90.20
2018-10-09T21:50:27.068Z,91.20
2018-10-09T21:52:55.418Z,91.20
2018-10-09T21:55:24.443Z,91.00
2018-10-09T21:57:53.643Z,91.50
2018-10-09T22:00:22.935Z,91.80
2018-10-09T22:02:51.991Z,91.70
2018-10-09T22:05:20.718Z,91.60
2018-10-09T22:07:50.426Z,92.40
2018-10-09T22:10:19.450Z,92.00
2018-10-09T22:12:48.510Z,92.50
2018-10-09T22:15:17.739Z,92.90
2018-10-09T22:17:46.461Z,93.50
2018-10-09T22:20:15.496Z,93.30
2018-10-09T22:22:44.661Z,92.80
2018-10-09T22:25:13.341Z,93.60
2018-10-09T22:27:42.415Z,94.70
2018-10-09T22:30:11.229Z,94.50
2018-10-09T22:32:40.601Z,94.60
2018-10-09T22:35:09.319Z,94.90
2018-10-09T22:37:38.510Z,95.60
2018-10-09T22:40:07.002Z,95.40
2018-10-09T22:42:35.451Z,95.20
2018-10-09T22:45:04.160Z,95.60
2018-10-09T22:47:32.947Z,95.50
2018-10-09T22:50:01.812Z,95.80
2018-10-09T22:52:30.881Z,96.80
2018-10-09T22:54:59.590Z,96.50
2018-10-09T22:57:28.309Z,97.70
2018-10-09T22:59:57.093Z,98.50
2018-10-09T23:02:26.118Z,98.50
2018-10-09T23:04:55.173Z,98.00
2018-10-09T23:07:23.890Z,98.10
2018-10-09T23:09:52.906Z,97.30
2018-10-09T23:12:21.678Z,97.50
2018-10-09T23:14:50.733Z,97.60
2018-10-09T23:17:19.479Z,97.50
2018-10-09T23:19:48.547Z,98.00
2018-10-09T23:22:17.287Z,97.80
2018-10-09T23:24:46.330Z,98.40
2018-10-09T23:27:15.225Z,98.70
2018-10-09T23:29:44.331Z,98.30
2018-10-09T23:32:13.250Z,98.30
2018-10-09T23:34:41.965Z,97.80
2018-10-09T23:37:10.734Z,97.80
2018-10-09T23:39:39.787Z,97.70
2018-10-09T23:42:08.505Z,97.20
2018-10-09T23:44:37.869Z,96.60
2018-10-09T23:47:06.713Z,97.00
2018-10-09T23:49:35.477Z,97.20
2018-10-09T23:52:04.347Z,98.00
2018-10-09T23:54:33.194Z,98.00
2018-10-09T23:57:01.862Z,97.80
2018-10-09T23:59:30.437Z,97.20
